sensor_id;sensor_type;location;lat;lon;timestamp;temperature;humidity
69189;DHT22;56302;52.322;5.926;2024-03-23T00:56:08;6.10;98.10
69189;DHT22;56302;52.322;5.926;2024-03-23T00:58:34;6.10;98.10
69189;DHT22;56302;52.322;5.926;2024-03-23T01:01:00;6.10;98.10
69189;DHT22;56302;52.322;5.926;2024-03-23T01:03:25;6.00;98.10
69189;DHT22;56302;52.322;5.926;2024-03-23T01:05:51;6.00;98.20
69189;DHT22;56302;52.322;5.926;2024-03-23T01:08:18;6.00;98.20
69189;DHT22;56302;52.322;5.926;2024-03-23T01:10:54;6.00;98.20
69189;DHT22;56302;52.322;5.926;2024-03-23T01:13:20;5.90;98.30
69189;DHT22;56302;52.322;5.926;2024-03-23T01:15:51;5.90;98.30
69189;DHT22;56302;52.322;5.926;2024-03-23T01:18:20;5.90;98.20
69189;DHT22;56302;52.322;5.926;2024-03-23T01:20:46;5.90;98.20
69189;DHT22;56302;52.322;5.926;2024-03-23T01:23:12;5.90;98.10
69189;DHT22;56302;52.322;5.926;2024-03-23T01:25:38;5.90;97.90
69189;DHT22;56302;52.322;5.926;2024-03-23T01:28:04;5.80;97.80
69189;DHT22;56302;52.322;5.926;2024-03-23T01:30:30;5.80;97.80
69189;DHT22;56302;52.322;5.926;2024-03-23T01:32:56;5.70;97.70
69189;DHT22;56302;52.322;5.926;2024-03-23T01:35:21;5.60;97.80
69189;DHT22;56302;52.322;5.926;2024-03-23T01:37:47;5.60;98.00
69189;DHT22;56302;52.322;5.926;2024-03-23T01:40:13;5.50;98.20
69189;DHT22;56302;52.322;5.926;2024-03-23T01:42:39;5.40;98.40
69189;DHT22;56302;52.322;5.926;2024-03-23T01:45:08;5.40;98.50
69189;DHT22;56302;52.322;5.926;2024-03-23T01:47:34;5.30;98.60
69189;DHT22;56302;52.322;5.926;2024-03-23T01:50:00;5.30;98.70
69189;DHT22;56302;52.322;5.926;2024-03-23T01:52:26;5.30;98.60
69189;DHT22;56302;52.322;5.926;2024-03-23T01:54:53;5.30;98.70
69189;DHT22;56302;52.322;5.926;2024-03-23T01:57:19;5.20;98.60
69189;DHT22;56302;52.322;5.926;2024-03-23T01:59:46;5.20;98.60
69189;DHT22;56302;52.322;5.926;2024-03-23T02:02:12;5.20;98.60
69189;DHT22;56302;52.322;5.926;2024-03-23T02:04:38;5.10;98.60
69189;DHT22;56302;52.322;5.926;2024-03-23T02:07:04;5.10;98.70
69189;DHT22;56302;52.322;5.926;2024-03-23T02:09:31;5.10;98.70
69189;DHT22;56302;52.322;5.926;2024-03-23T02:11:57;5.10;98.70
69189;DHT22;56302;52.322;5.926;2024-03-23T02:14:23;5.00;98.80
69189;DHT22;56302;52.322;5.926;2024-03-23T02:16:49;5.00;98.90
69189;DHT22;56302;52.322;5.926;2024-03-23T02:19:14;5.00;99.00
69189;DHT22;56302;52.322;5.926;2024-03-23T02:21:40;5.00;99.10
69189;DHT22;56302;52.322;5.926;2024-03-23T02:24:05;4.90;99.20
69189;DHT22;56302;52.322;5.926;2024-03-23T02:26:31;4.90;99.20
69189;DHT22;56302;52.322;5.926;2024-03-23T02:28:57;4.90;99.30
69189;DHT22;56302;52.322;5.926;2024-03-23T02:31:22;4.90;99.30
69189;DHT22;56302;52.322;5.926;2024-03-23T02:33:48;4.90;99.30
69189;DHT22;56302;52.322;5.926;2024-03-23T02:36:14;4.90;99.30
69189;DHT22;56302;52.322;5.926;2024-03-23T02:38:39;4.90;99.30
69189;DHT22;56302;52.322;5.926;2024-03-23T02:41:05;4.90;99.30
69189;DHT22;56302;52.322;5.926;2024-03-23T02:43:31;4.80;99.30
69189;DHT22;56302;52.322;5.926;2024-03-23T02:45:57;4.80;99.40
69189;DHT22;56302;52.322;5.926;2024-03-23T02:48:23;4.80;99.40
69189;DHT22;56302;52.322;5.926;2024-03-23T02:50:49;4.80;99.40
69189;DHT22;56302;52.322;5.926;2024-03-23T02:53:15;4.70;99.40
69189;DHT22;56302;52.322;5.926;2024-03-23T02:55:40;4.60;99.30
69189;DHT22;56302;52.322;5.926;2024-03-23T02:58:06;4.60;99.30
69189;DHT22;56302;52.322;5.926;2024-03-23T03:00:31;4.50;99.40
69189;DHT22;56302;52.322;5.926;2024-03-23T03:02:57;4.50;99.50
69189;DHT22;56302;52.322;5.926;2024-03-23T03:05:22;4.40;99.60
69189;DHT22;56302;52.322;5.926;2024-03-23T03:07:48;4.50;99.60
69189;DHT22;56302;52.322;5.926;2024-03-23T03:10:14;4.50;99.60
69189;DHT22;56302;52.322;5.926;2024-03-23T03:12:39;4.40;99.60
69189;DHT22;56302;52.322;5.926;2024-03-23T03:15:05;4.40;99.70
69189;DHT22;56302;52.322;5.926;2024-03-23T03:17:31;4.40;99.60
69189;DHT22;56302;52.322;5.926;2024-03-23T03:19:57;4.40;99.70
69189;DHT22;56302;52.322;5.926;2024-03-23T03:22:22;4.30;99.80
69189;DHT22;56302;52.322;5.926;2024-03-23T03:24:49;4.30;99.90
69189;DHT22;56302;52.322;5.926;2024-03-23T03:27:14;4.30;99.90
69189;DHT22;56302;52.322;5.926;2024-03-23T03:29:40;4.30;99.90
69189;DHT22;56302;52.322;5.926;2024-03-23T03:32:06;4.30;99.90
69189;DHT22;56302;52.322;5.926;2024-03-23T03:34:31;4.30;99.90
69189;DHT22;56302;52.322;5.926;2024-03-23T03:36:57;4.30;99.90
69189;DHT22;56302;52.322;5.926;2024-03-23T03:39:23;4.20;99.90
69189;DHT22;56302;52.322;5.926;2024-03-23T03:41:50;4.20;99.90
69189;DHT22;56302;52.322;5.926;2024-03-23T03:44:16;4.30;99.90
69189;DHT22;56302;52.322;5.926;2024-03-23T03:46:42;4.30;99.90
69189;DHT22;56302;52.322;5.926;2024-03-23T03:49:08;4.20;99.90
69189;DHT22;56302;52.322;5.926;2024-03-23T03:51:33;4.30;99.90
69189;DHT22;56302;52.322;5.926;2024-03-23T03:53:59;4.20;99.90
69189;DHT22;56302;52.322;5.926;2024-03-23T03:56:25;4.20;99.90
69189;DHT22;56302;52.322;5.926;2024-03-23T03:58:50;4.30;99.90
69189;DHT22;56302;52.322;5.926;2024-03-23T04:01:16;4.20;99.90
69189;DHT22;56302;52.322;5.926;2024-03-23T04:03:43;4.20;99.90
69189;DHT22;56302;52.322;5.926;2024-03-23T04:06:09;4.20;99.90
69189;DHT22;56302;52.322;5.926;2024-03-23T04:08:35;4.20;99.90
69189;DHT22;56302;52.322;5.926;2024-03-23T04:11:01;4.20;99.90
69189;DHT22;56302;52.322;5.926;2024-03-23T04:13:27;4.10;99.90
69189;DHT22;56302;52.322;5.926;2024-03-23T04:15:56;4.10;99.90
69189;DHT22;56302;52.322;5.926;2024-03-23T04:18:22;4.10;99.90
69189;DHT22;56302;52.322;5.926;2024-03-23T04:20:51;4.10;99.90
69189;DHT22;56302;52.322;5.926;2024-03-23T04:23:17;4.10;99.90
69189;DHT22;56302;52.322;5.926;2024-03-23T04:25:43;4.10;99.90
69189;DHT22;56302;52.322;5.926;2024-03-23T04:28:08;4.10;99.90
69189;DHT22;56302;52.322;5.926;2024-03-23T04:30:34;4.00;99.90
69189;DHT22;56302;52.322;5.926;2024-03-23T04:32:59;4.00;99.90
69189;DHT22;56302;52.322;5.926;2024-03-23T04:35:26;4.00;99.90
69189;DHT22;56302;52.322;5.926;2024-03-23T04:37:53;3.90;99.90
69189;DHT22;56302;52.322;5.926;2024-03-23T04:40:19;3.90;99.90
69189;DHT22;56302;52.322;5.926;2024-03-23T04:42:45;3.90;99.90
69189;DHT22;56302;52.322;5.926;2024-03-23T04:45:10;3.90;99.90
69189;DHT22;56302;52.322;5.926;2024-03-23T04:47:37;3.90;99.90
69189;DHT22;56302;52.322;5.926;2024-03-23T04:50:03;3.90;99.90
69189;DHT22;56302;52.322;5.926;2024-03-23T04:52:29;3.90;99.90
69189;DHT22;56302;52.322;5.926;2024-03-23T04:54:55;3.80;99.90
69189;DHT22;56302;52.322;5.926;2024-03-23T04:57:21;3.80;99.90
69189;DHT22;56302;52.322;5.926;2024-03-23T04:59:46;3.80;99.90
69189;DHT22;56302;52.322;5.926;2024-03-23T05:02:12;3.70;99.90
69189;DHT22;56302;52.322;5.926;2024-03-23T05:04:38;3.70;99.90
69189;DHT22;56302;52.322;5.926;2024-03-23T05:07:06;3.70;99.90
69189;DHT22;56302;52.322;5.926;2024-03-23T05:09:31;3.60;99.90
69189;DHT22;56302;52.322;5.926;2024-03-23T05:11:59;3.60;99.90
69189;DHT22;56302;52.322;5.926;2024-03-23T05:14:26;3.50;99.90
69189;DHT22;56302;52.322;5.926;2024-03-23T05:16:52;3.60;99.90
69189;DHT22;56302;52.322;5.926;2024-03-23T05:19:18;3.60;99.90
69189;DHT22;56302;52.322;5.926;2024-03-23T05:21:43;3.60;99.90
69189;DHT22;56302;52.322;5.926;2024-03-23T05:24:09;3.60;99.90
69189;DHT22;56302;52.322;5.926;2024-03-23T05:26:35;3.60;99.90
69189;DHT22;56302;52.322;5.926;2024-03-23T05:29:01;3.60;99.90
69189;DHT22;56302;52.322;5.926;2024-03-23T05:31:30;3.60;99.90
69189;DHT22;56302;52.322;5.926;2024-03-23T05:33:56;3.60;99.90
69189;DHT22;56302;52.322;5.926;2024-03-23T05:36:22;3.60;99.90
69189;DHT22;56302;52.322;5.926;2024-03-23T05:38:49;3.60;99.90
69189;DHT22;56302;52.322;5.926;2024-03-23T05:41:14;3.60;99.90
69189;DHT22;56302;52.322;5.926;2024-03-23T05:43:40;3.60;99.90
69189;DHT22;56302;52.322;5.926;2024-03-23T05:46:06;3.60;99.90
69189;DHT22;56302;52.322;5.926;2024-03-23T05:48:32;3.60;99.90
69189;DHT22;56302;52.322;5.926;2024-03-23T05:50:57;3.60;99.90
69189;DHT22;56302;52.322;5.926;2024-03-23T05:53:24;3.60;99.90
69189;DHT22;56302;52.322;5.926;2024-03-23T05:55:50;3.60;99.90
69189;DHT22;56302;52.322;5.926;2024-03-23T05:58:16;3.60;99.90
69189;DHT22;56302;52.322;5.926;2024-03-23T06:00:43;3.60;99.90
69189;DHT22;56302;52.322;5.926;2024-03-23T06:03:10;3.60;99.90
69189;DHT22;56302;52.322;5.926;2024-03-23T06:05:38;3.70;99.90
69189;DHT22;56302;52.322;5.926;2024-03-23T06:08:05;3.80;99.90
69189;DHT22;56302;52.322;5.926;2024-03-23T06:10:30;4.00;99.90
69189;DHT22;56302;52.322;5.926;2024-03-23T06:12:57;4.20;99.90
69189;DHT22;56302;52.322;5.926;2024-03-23T06:15:24;4.30;99.90
69189;DHT22;56302;52.322;5.926;2024-03-23T06:17:49;4.30;99.90
69189;DHT22;56302;52.322;5.926;2024-03-23T06:20:15;4.50;99.90
69189;DHT22;56302;52.322;5.926;2024-03-23T06:22:40;4.40;99.90
69189;DHT22;56302;52.322;5.926;2024-03-23T06:25:06;4.40;99.60
69189;DHT22;56302;52.322;5.926;2024-03-23T06:27:32;4.30;99.20
69189;DHT22;56302;52.322;5.926;2024-03-23T06:29:59;4.30;99.20
69189;DHT22;56302;52.322;5.926;2024-03-23T06:32:24;4.30;99.20
69189;DHT22;56302;52.322;5.926;2024-03-23T06:34:50;4.30;99.20
69189;DHT22;56302;52.322;5.926;2024-03-23T06:37:16;4.40;99.40
69189;DHT22;56302;52.322;5.926;2024-03-23T06:39:41;4.40;99.30
69189;DHT22;56302;52.322;5.926;2024-03-23T06:42:07;4.40;99.40
69189;DHT22;56302;52.322;5.926;2024-03-23T06:44:33;4.50;99.40
69189;DHT22;56302;52.322;5.926;2024-03-23T06:46:59;4.50;99.20
69189;DHT22;56302;52.322;5.926;2024-03-23T06:49:25;4.40;99.10
69189;DHT22;56302;52.322;5.926;2024-03-23T06:51:50;4.30;99.10
69189;DHT22;56302;52.322;5.926;2024-03-23T06:54:19;4.40;99.30
69189;DHT22;56302;52.322;5.926;2024-03-23T06:56:45;4.40;99.20
69189;DHT22;56302;52.322;5.926;2024-03-23T06:59:11;4.50;99.10
69189;DHT22;56302;52.322;5.926;2024-03-23T07:01:36;4.50;98.90
69189;DHT22;56302;52.322;5.926;2024-03-23T07:04:02;4.60;98.80
69189;DHT22;56302;52.322;5.926;2024-03-23T07:06:29;4.70;98.70
69189;DHT22;56302;52.322;5.926;2024-03-23T07:08:55;4.80;98.50
69189;DHT22;56302;52.322;5.926;2024-03-23T07:11:22;4.90;98.50
69189;DHT22;56302;52.322;5.926;2024-03-23T07:13:51;5.10;98.50
69189;DHT22;56302;52.322;5.926;2024-03-23T07:16:18;5.20;98.60
69189;DHT22;56302;52.322;5.926;2024-03-23T07:18:43;5.40;98.90
69189;DHT22;56302;52.322;5.926;2024-03-23T07:21:09;5.50;98.90
69189;DHT22;56302;52.322;5.926;2024-03-23T07:23:35;5.60;98.80
69189;DHT22;56302;52.322;5.926;2024-03-23T07:26:02;5.90;99.20
69189;DHT22;56302;52.322;5.926;2024-03-23T07:28:33;6.00;98.80
69189;DHT22;56302;52.322;5.926;2024-03-23T07:31:07;6.20;98.40
69189;DHT22;56302;52.322;5.926;2024-03-23T07:33:37;6.50;98.50
69189;DHT22;56302;52.322;5.926;2024-03-23T07:36:03;6.70;97.90
69189;DHT22;56302;52.322;5.926;2024-03-23T07:38:29;6.90;97.80
69189;DHT22;56302;52.322;5.926;2024-03-23T07:41:12;7.10;97.50
69189;DHT22;56302;52.322;5.926;2024-03-23T07:43:39;7.30;95.90
69189;DHT22;56302;52.322;5.926;2024-03-23T07:46:05;7.50;94.40
69189;DHT22;56302;52.322;5.926;2024-03-23T07:48:31;7.50;93.50
69189;DHT22;56302;52.322;5.926;2024-03-23T07:50:58;8.00;94.20
69189;DHT22;56302;52.322;5.926;2024-03-23T07:53:24;8.30;93.10
69189;DHT22;56302;52.322;5.926;2024-03-23T07:55:57;8.30;91.10
69189;DHT22;56302;52.322;5.926;2024-03-23T07:58:24;8.30;90.30
69189;DHT22;56302;52.322;5.926;2024-03-23T08:00:49;8.50;90.30
69189;DHT22;56302;52.322;5.926;2024-03-23T08:03:15;8.30;86.80
69189;DHT22;56302;52.322;5.926;2024-03-23T08:05:41;8.60;89.30
69189;DHT22;56302;52.322;5.926;2024-03-23T08:08:07;8.50;87.10
69189;DHT22;56302;52.322;5.926;2024-03-23T08:10:32;8.80;88.20
69189;DHT22;56302;52.322;5.926;2024-03-23T08:12:58;8.90;86.50
69189;DHT22;56302;52.322;5.926;2024-03-23T08:15:23;8.90;85.10
69189;DHT22;56302;52.322;5.926;2024-03-23T08:17:50;9.10;85.40
69189;DHT22;56302;52.322;5.926;2024-03-23T08:20:15;9.20;84.20
69189;DHT22;56302;52.322;5.926;2024-03-23T08:22:41;9.40;85.00
69189;DHT22;56302;52.322;5.926;2024-03-23T08:25:06;9.70;82.60
69189;DHT22;56302;52.322;5.926;2024-03-23T08:27:32;9.80;83.60
69189;DHT22;56302;52.322;5.926;2024-03-23T08:29:58;9.80;82.80
69189;DHT22;56302;52.322;5.926;2024-03-23T08:32:24;9.70;83.70
69189;DHT22;56302;52.322;5.926;2024-03-23T08:34:50;9.30;84.50
69189;DHT22;56302;52.322;5.926;2024-03-23T08:37:15;9.20;83.90
69189;DHT22;56302;52.322;5.926;2024-03-23T08:39:43;9.20;85.20
69189;DHT22;56302;52.322;5.926;2024-03-23T08:42:09;9.20;84.80
69189;DHT22;56302;52.322;5.926;2024-03-23T08:44:34;9.00;83.90
69189;DHT22;56302;52.322;5.926;2024-03-23T08:47:01;8.90;84.50
69189;DHT22;56302;52.322;5.926;2024-03-23T08:49:26;9.00;86.20
69189;DHT22;56302;52.322;5.926;2024-03-23T08:51:52;8.80;82.80
69189;DHT22;56302;52.322;5.926;2024-03-23T08:54:19;9.20;85.60
69189;DHT22;56302;52.322;5.926;2024-03-23T08:56:46;9.40;82.00
69189;DHT22;56302;52.322;5.926;2024-03-23T08:59:11;9.50;79.20
69189;DHT22;56302;52.322;5.926;2024-03-23T09:01:37;9.60;81.90
69189;DHT22;56302;52.322;5.926;2024-03-23T09:04:03;9.30;75.70
69189;DHT22;56302;52.322;5.926;2024-03-23T09:06:29;9.20;80.90
69189;DHT22;56302;52.322;5.926;2024-03-23T09:08:55;9.70;77.70
69189;DHT22;56302;52.322;5.926;2024-03-23T09:11:20;9.80;75.30
69189;DHT22;56302;52.322;5.926;2024-03-23T09:13:46;9.70;76.60
69189;DHT22;56302;52.322;5.926;2024-03-23T09:16:12;9.50;73.30
69189;DHT22;56302;52.322;5.926;2024-03-23T09:18:38;8.70;75.50
69189;DHT22;56302;52.322;5.926;2024-03-23T09:21:10;8.50;78.50
69189;DHT22;56302;52.322;5.926;2024-03-23T09:23:36;8.70;76.40
69189;DHT22;56302;52.322;5.926;2024-03-23T09:26:05;8.90;80.50
69189;DHT22;56302;52.322;5.926;2024-03-23T09:28:33;9.10;79.30
69189;DHT22;56302;52.322;5.926;2024-03-23T09:31:05;9.50;78.30
69189;DHT22;56302;52.322;5.926;2024-03-23T09:33:32;10.00;77.90
69189;DHT22;56302;52.322;5.926;2024-03-23T09:35:58;10.00;74.70
69189;DHT22;56302;52.322;5.926;2024-03-23T09:38:28;9.70;70.10
69189;DHT22;56302;52.322;5.926;2024-03-23T09:40:53;9.90;73.20
69189;DHT22;56302;52.322;5.926;2024-03-23T09:43:19;10.00;72.20
69189;DHT22;56302;52.322;5.926;2024-03-23T09:45:46;10.10;71.40
69189;DHT22;56302;52.322;5.926;2024-03-23T09:48:12;10.10;71.40
69189;DHT22;56302;52.322;5.926;2024-03-23T09:50:42;10.00;68.80
69189;DHT22;56302;52.322;5.926;2024-03-23T09:53:09;10.30;72.10
69189;DHT22;56302;52.322;5.926;2024-03-23T09:55:37;10.60;66.50
69189;DHT22;56302;52.322;5.926;2024-03-23T09:58:03;10.70;69.20
69189;DHT22;56302;52.322;5.926;2024-03-23T10:00:30;10.50;68.60
69189;DHT22;56302;52.322;5.926;2024-03-23T10:02:56;9.50;68.60
69189;DHT22;56302;52.322;5.926;2024-03-23T10:05:27;8.70;72.40
69189;DHT22;56302;52.322;5.926;2024-03-23T10:07:53;8.20;73.20
69189;DHT22;56302;52.322;5.926;2024-03-23T10:10:19;8.20;74.50
69189;DHT22;56302;52.322;5.926;2024-03-23T10:12:48;8.30;74.30
69189;DHT22;56302;52.322;5.926;2024-03-23T10:15:23;8.40;77.20
69189;DHT22;56302;52.322;5.926;2024-03-23T10:18:27;8.50;73.80
69189;DHT22;56302;52.322;5.926;2024-03-23T10:23:37;8.20;72.90
69189;DHT22;56302;52.322;5.926;2024-03-23T10:26:24;8.10;71.20
69189;DHT22;56302;52.322;5.926;2024-03-23T10:28:55;8.20;72.70
69189;DHT22;56302;52.322;5.926;2024-03-23T10:31:30;7.90;71.70
69189;DHT22;56302;52.322;5.926;2024-03-23T10:33:55;8.00;72.40
69189;DHT22;56302;52.322;5.926;2024-03-23T10:36:23;8.20;72.60
69189;DHT22;56302;52.322;5.926;2024-03-23T10:38:53;8.70;75.40
69189;DHT22;56302;52.322;5.926;2024-03-23T10:41:20;8.90;72.50
69189;DHT22;56302;52.322;5.926;2024-03-23T10:43:46;8.40;73.60
69189;DHT22;56302;52.322;5.926;2024-03-23T10:46:12;7.80;75.70
69189;DHT22;56302;52.322;5.926;2024-03-23T10:48:40;7.30;77.80
69189;DHT22;56302;52.322;5.926;2024-03-23T10:51:10;7.10;78.60
69189;DHT22;56302;52.322;5.926;2024-03-23T10:53:36;7.10;80.90
69189;DHT22;56302;52.322;5.926;2024-03-23T10:56:04;7.20;81.00
69189;DHT22;56302;52.322;5.926;2024-03-23T10:58:39;7.80;80.60
69189;DHT22;56302;52.322;5.926;2024-03-23T11:01:04;8.00;78.20
69189;DHT22;56302;52.322;5.926;2024-03-23T11:03:37;8.20;80.60
69189;DHT22;56302;52.322;5.926;2024-03-23T11:06:04;8.50;78.60
69189;DHT22;56302;52.322;5.926;2024-03-23T11:08:40;8.10;79.40
69189;DHT22;56302;52.322;5.926;2024-03-23T11:11:20;7.80;78.80
69189;DHT22;56302;52.322;5.926;2024-03-23T11:13:51;7.60;80.10
69189;DHT22;56302;52.322;5.926;2024-03-23T11:16:22;7.50;81.60
69189;DHT22;56302;52.322;5.926;2024-03-23T11:18:49;8.00;82.90
69189;DHT22;56302;52.322;5.926;2024-03-23T11:21:53;8.20;79.50
69189;DHT22;56302;52.322;5.926;2024-03-23T11:24:20;8.50;78.90
69189;DHT22;56302;52.322;5.926;2024-03-23T11:26:46;8.70;77.00
69189;DHT22;56302;52.322;5.926;2024-03-23T11:29:13;8.80;78.90
69189;DHT22;56302;52.322;5.926;2024-03-23T11:31:46;8.80;75.20
69189;DHT22;56302;52.322;5.926;2024-03-23T11:34:11;8.60;73.30
69189;DHT22;56302;52.322;5.926;2024-03-23T11:36:37;8.40;72.30
69189;DHT22;56302;52.322;5.926;2024-03-23T11:39:19;8.00;72.30
69189;DHT22;56302;52.322;5.926;2024-03-23T11:41:52;8.10;71.80
69189;DHT22;56302;52.322;5.926;2024-03-23T11:44:18;8.20;75.10
69189;DHT22;56302;52.322;5.926;2024-03-23T11:46:45;8.50;73.60
69189;DHT22;56302;52.322;5.926;2024-03-23T11:49:24;8.10;74.10
69189;DHT22;56302;52.322;5.926;2024-03-23T11:51:50;7.70;75.30
69189;DHT22;56302;52.322;5.926;2024-03-23T11:54:16;7.80;77.70
69189;DHT22;56302;52.322;5.926;2024-03-23T11:56:59;8.00;76.90
69189;DHT22;56302;52.322;5.926;2024-03-23T11:59:34;8.50;78.00
69189;DHT22;56302;52.322;5.926;2024-03-23T12:02:00;8.90;73.40
69189;DHT22;56302;52.322;5.926;2024-03-23T12:04:30;9.30;74.90
69189;DHT22;56302;52.322;5.926;2024-03-23T12:09:39;9.90;72.70
69189;DHT22;56302;52.322;5.926;2024-03-23T12:12:16;10.50;70.30
69189;DHT22;56302;52.322;5.926;2024-03-23T12:14:45;10.90;67.80
69189;DHT22;56302;52.322;5.926;2024-03-23T12:17:26;10.90;66.40
69189;DHT22;56302;52.322;5.926;2024-03-23T12:19:51;10.40;62.30
69189;DHT22;56302;52.322;5.926;2024-03-23T12:22:21;9.80;64.70
69189;DHT22;56302;52.322;5.926;2024-03-23T12:24:47;9.70;65.90
69189;DHT22;56302;52.322;5.926;2024-03-23T12:27:12;9.90;65.70
69189;DHT22;56302;52.322;5.926;2024-03-23T12:29:38;10.10;65.30
69189;DHT22;56302;52.322;5.926;2024-03-23T12:32:05;10.40;66.10
69189;DHT22;56302;52.322;5.926;2024-03-23T12:34:30;10.10;63.80
69189;DHT22;56302;52.322;5.926;2024-03-23T12:36:56;9.70;63.10
69189;DHT22;56302;52.322;5.926;2024-03-23T12:39:22;9.40;64.20
69189;DHT22;56302;52.322;5.926;2024-03-23T12:41:48;9.70;65.60
69189;DHT22;56302;52.322;5.926;2024-03-23T12:44:14;9.60;63.20
69189;DHT22;56302;52.322;5.926;2024-03-23T12:46:41;9.60;62.90
69189;DHT22;56302;52.322;5.926;2024-03-23T12:49:07;9.50;63.60
69189;DHT22;56302;52.322;5.926;2024-03-23T12:51:33;9.60;66.20
69189;DHT22;56302;52.322;5.926;2024-03-23T12:53:58;9.90;66.60
69189;DHT22;56302;52.322;5.926;2024-03-23T12:56:24;10.10;66.60
69189;DHT22;56302;52.322;5.926;2024-03-23T12:58:50;10.10;64.00
69189;DHT22;56302;52.322;5.926;2024-03-23T13:01:19;10.00;65.90
69189;DHT22;56302;52.322;5.926;2024-03-23T13:03:49;10.30;65.90
69189;DHT22;56302;52.322;5.926;2024-03-23T13:06:15;10.20;62.80
69189;DHT22;56302;52.322;5.926;2024-03-23T13:08:41;9.70;62.60
69189;DHT22;56302;52.322;5.926;2024-03-23T13:11:07;9.60;61.60
69189;DHT22;56302;52.322;5.926;2024-03-23T13:13:36;9.50;60.80
69189;DHT22;56302;52.322;5.926;2024-03-23T13:16:02;9.00;60.90
69189;DHT22;56302;52.322;5.926;2024-03-23T13:18:29;8.90;63.30
69189;DHT22;56302;52.322;5.926;2024-03-23T13:20:55;8.70;67.30
69189;DHT22;56302;52.322;5.926;2024-03-23T13:23:21;7.90;72.70
69189;DHT22;56302;52.322;5.926;2024-03-23T13:25:54;7.10;77.70
69189;DHT22;56302;52.322;5.926;2024-03-23T13:28:23;6.80;81.30
69189;DHT22;56302;52.322;5.926;2024-03-23T13:30:56;6.90;83.60
69189;DHT22;56302;52.322;5.926;2024-03-23T13:33:22;6.60;81.60
69189;DHT22;56302;52.322;5.926;2024-03-23T13:38:16;6.50;83.90
69189;DHT22;56302;52.322;5.926;2024-03-23T13:40:52;6.80;84.60
69189;DHT22;56302;52.322;5.926;2024-03-23T13:43:18;7.00;84.60
69189;DHT22;56302;52.322;5.926;2024-03-23T13:45:45;7.30;83.30
69189;DHT22;56302;52.322;5.926;2024-03-23T13:48:11;7.70;83.40
69189;DHT22;56302;52.322;5.926;2024-03-23T13:50:37;7.50;79.00
69189;DHT22;56302;52.322;5.926;2024-03-23T13:53:03;7.60;80.50
69189;DHT22;56302;52.322;5.926;2024-03-23T13:55:28;7.80;78.60
69189;DHT22;56302;52.322;5.926;2024-03-23T13:57:54;8.00;77.40
69189;DHT22;56302;52.322;5.926;2024-03-23T14:00:19;8.00;76.10
69189;DHT22;56302;52.322;5.926;2024-03-23T14:02:45;8.20;74.30
69189;DHT22;56302;52.322;5.926;2024-03-23T14:05:11;8.10;73.30
69189;DHT22;56302;52.322;5.926;2024-03-23T14:07:37;8.10;73.20
69189;DHT22;56302;52.322;5.926;2024-03-23T14:10:03;7.90;73.30
69189;DHT22;56302;52.322;5.926;2024-03-23T14:12:30;7.70;72.10
69189;DHT22;56302;52.322;5.926;2024-03-23T14:14:56;7.60;72.70
69189;DHT22;56302;52.322;5.926;2024-03-23T14:17:21;7.60;73.00
69189;DHT22;56302;52.322;5.926;2024-03-23T14:19:47;7.80;72.30
69189;DHT22;56302;52.322;5.926;2024-03-23T14:22:12;7.80;70.90
69189;DHT22;56302;52.322;5.926;2024-03-23T14:24:38;7.80;72.40
69189;DHT22;56302;52.322;5.926;2024-03-23T14:27:04;7.40;70.90
69189;DHT22;56302;52.322;5.926;2024-03-23T14:29:32;7.00;72.30
69189;DHT22;56302;52.322;5.926;2024-03-23T14:31:59;6.90;73.90
69189;DHT22;56302;52.322;5.926;2024-03-23T14:34:26;7.10;75.00
69189;DHT22;56302;52.322;5.926;2024-03-23T14:36:54;7.20;74.70
69189;DHT22;56302;52.322;5.926;2024-03-23T14:39:24;7.50;74.50
69189;DHT22;56302;52.322;5.926;2024-03-23T14:41:50;7.80;71.60
69189;DHT22;56302;52.322;5.926;2024-03-23T14:44:16;8.10;72.30
69189;DHT22;56302;52.322;5.926;2024-03-23T14:46:42;8.20;72.20
69189;DHT22;56302;52.322;5.926;2024-03-23T14:49:08;8.20;70.80
69189;DHT22;56302;52.322;5.926;2024-03-23T14:51:34;8.30;71.70
69189;DHT22;56302;52.322;5.926;2024-03-23T14:53:59;8.20;70.80
69189;DHT22;56302;52.322;5.926;2024-03-23T14:56:32;8.00;70.40
69189;DHT22;56302;52.322;5.926;2024-03-23T14:58:58;8.00;71.00
69189;DHT22;56302;52.322;5.926;2024-03-23T15:01:24;7.80;70.80
69189;DHT22;56302;52.322;5.926;2024-03-23T15:03:49;7.90;70.00
69189;DHT22;56302;52.322;5.926;2024-03-23T15:06:21;8.20;71.90
69189;DHT22;56302;52.322;5.926;2024-03-23T15:08:47;8.50;71.40
69189;DHT22;56302;52.322;5.926;2024-03-23T15:11:12;8.50;69.90
69189;DHT22;56302;52.322;5.926;2024-03-23T15:13:38;8.60;70.20
69189;DHT22;56302;52.322;5.926;2024-03-23T15:16:04;8.40;69.80
69189;DHT22;56302;52.322;5.926;2024-03-23T15:18:31;8.40;70.50
69189;DHT22;56302;52.322;5.926;2024-03-23T15:20:59;8.30;70.60
69189;DHT22;56302;52.322;5.926;2024-03-23T15:23:29;8.00;72.30
69189;DHT22;56302;52.322;5.926;2024-03-23T15:25:55;7.60;66.70
69189;DHT22;56302;52.322;5.926;2024-03-23T15:28:22;7.40;67.50
69189;DHT22;56302;52.322;5.926;2024-03-23T15:30:48;7.40;67.10
69189;DHT22;56302;52.322;5.926;2024-03-23T15:33:14;7.30;68.50
69189;DHT22;56302;52.322;5.926;2024-03-23T15:35:43;7.30;69.70
69189;DHT22;56302;52.322;5.926;2024-03-23T15:38:12;7.40;69.30
69189;DHT22;56302;52.322;5.926;2024-03-23T15:40:38;7.50;68.80
69189;DHT22;56302;52.322;5.926;2024-03-23T15:43:04;7.70;70.80
69189;DHT22;56302;52.322;5.926;2024-03-23T15:45:29;8.00;69.40
69189;DHT22;56302;52.322;5.926;2024-03-23T15:47:55;8.00;69.10
69189;DHT22;56302;52.322;5.926;2024-03-23T15:50:20;8.10;68.00
69189;DHT22;56302;52.322;5.926;2024-03-23T15:52:46;8.10;69.00
69189;DHT22;56302;52.322;5.926;2024-03-23T15:55:12;8.00;69.00
69189;DHT22;56302;52.322;5.926;2024-03-23T15:57:37;7.90;69.40
69189;DHT22;56302;52.322;5.926;2024-03-23T16:00:03;7.80;70.60
69189;DHT22;56302;52.322;5.926;2024-03-23T16:02:29;7.80;70.50
69189;DHT22;56302;52.322;5.926;2024-03-23T16:04:55;8.00;70.10
69189;DHT22;56302;52.322;5.926;2024-03-23T16:07:22;8.00;69.70
69189;DHT22;56302;52.322;5.926;2024-03-23T16:09:47;8.10;70.20
69189;DHT22;56302;52.322;5.926;2024-03-23T16:12:13;8.20;70.20
69189;DHT22;56302;52.322;5.926;2024-03-23T16:14:38;8.20;69.00
69189;DHT22;56302;52.322;5.926;2024-03-23T16:17:04;8.20;68.00
69189;DHT22;56302;52.322;5.926;2024-03-23T16:19:29;8.20;69.70
69189;DHT22;56302;52.322;5.926;2024-03-23T16:21:55;8.20;69.20
69189;DHT22;56302;52.322;5.926;2024-03-23T16:24:21;8.10;69.20
69189;DHT22;56302;52.322;5.926;2024-03-23T16:26:47;7.90;68.70
69189;DHT22;56302;52.322;5.926;2024-03-23T16:29:13;7.90;70.30
69189;DHT22;56302;52.322;5.926;2024-03-23T16:31:38;8.00;70.00
69189;DHT22;56302;52.322;5.926;2024-03-23T16:34:04;7.90;70.90
69189;DHT22;56302;52.322;5.926;2024-03-23T16:36:29;7.90;70.60
69189;DHT22;56302;52.322;5.926;2024-03-23T16:38:55;7.90;70.80
69189;DHT22;56302;52.322;5.926;2024-03-23T16:41:21;7.90;70.20
69189;DHT22;56302;52.322;5.926;2024-03-23T16:43:46;7.80;71.30
69189;DHT22;56302;52.322;5.926;2024-03-23T16:46:13;7.80;70.70